sensor_id;sensor_type;location;lat;lon;timestamp;pressure;altitude;pressure_sealevel;temperature;humidity
66945;BME280;53853;51.982;5.928;2023-02-01T00:02:08;101830.00;;;5.61;73.70
66945;BME280;53853;51.982;5.928;2023-02-01T00:04:38;101827.44;;;5.60;73.65
66945;BME280;53853;51.982;5.928;2023-02-01T00:07:08;101821.09;;;5.62;73.47
66945;BME280;53853;51.982;5.928;2023-02-01T00:09:40;101828.94;;;5.64;73.31
66945;BME280;53853;51.982;5.928;2023-02-01T00:12:10;101826.09;;;5.67;73.25
66945;BME280;53853;51.982;5.928;2023-02-01T00:14:40;101831.31;;;5.69;72.04
66945;BME280;53853;51.982;5.928;2023-02-01T00:17:10;101821.38;;;5.72;71.40
66945;BME280;53853;51.982;5.928;2023-02-01T00:19:40;101820.63;;;5.70;71.31
66945;BME280;53853;51.982;5.928;2023-02-01T00:22:09;101806.56;;;5.70;71.15
66945;BME280;53853;51.982;5.928;2023-02-01T00:24:42;101816.47;;;5.66;71.12
66945;BME280;53853;51.982;5.928;2023-02-01T00:27:12;101812.22;;;5.63;70.96
66945;BME280;53853;51.982;5.928;2023-02-01T00:29:47;101821.09;;;5.62;70.87
66945;BME280;53853;51.982;5.928;2023-02-01T00:32:17;101813.06;;;5.64;70.95
66945;BME280;53853;51.982;5.928;2023-02-01T00:34:47;101804.19;;;5.65;70.91
66945;BME280;53853;51.982;5.928;2023-02-01T00:37:16;101818.34;;;5.64;70.62
66945;BME280;53853;51.982;5.928;2023-02-01T00:39:49;101809.50;;;5.65;70.95
66945;BME280;53853;51.982;5.928;2023-02-01T00:42:21;101805.88;;;5.66;71.10
66945;BME280;53853;51.982;5.928;2023-02-01T00:44:51;101804.94;;;5.67;70.79
66945;BME280;53853;51.982;5.928;2023-02-01T00:47:21;101808.44;;;5.68;70.59
66945;BME280;53853;51.982;5.928;2023-02-01T00:49:51;101801.28;;;5.70;70.61
66945;BME280;53853;51.982;5.928;2023-02-01T00:52:21;101793.25;;;5.71;70.97
66945;BME280;53853;51.982;5.928;2023-02-01T00:54:53;101794.00;;;5.73;70.59
66945;BME280;53853;51.982;5.928;2023-02-01T00:57:23;101789.44;;;5.75;70.69
66945;BME280;53853;51.982;5.928;2023-02-01T00:59:53;101796.44;;;5.76;70.77
66945;BME280;53853;51.982;5.928;2023-02-01T01:02:23;101799.19;;;5.75;70.91
66945;BME280;53853;51.982;5.928;2023-02-01T01:04:55;101807.03;;;5.76;70.77
66945;BME280;53853;51.982;5.928;2023-02-01T01:07:25;101799.94;;;5.77;70.84
66945;BME280;53853;51.982;5.928;2023-02-01T01:09:57;101808.75;;;5.77;70.78
66945;BME280;53853;51.982;5.928;2023-02-01T01:12:27;101813.25;;;5.75;71.00
66945;BME280;53853;51.982;5.928;2023-02-01T01:14:57;101813.25;;;5.75;71.07
66945;BME280;53853;51.982;5.928;2023-02-01T01:17:27;101807.22;;;5.73;71.16
66945;BME280;53853;51.982;5.928;2023-02-01T01:19:57;101793.25;;;5.71;71.22
66945;BME280;53853;51.982;5.928;2023-02-01T01:22:27;101795.13;;;5.69;71.52
66945;BME280;53853;51.982;5.928;2023-02-01T01:24:59;101794.47;;;5.66;71.78
66945;BME280;53853;51.982;5.928;2023-02-01T01:27:29;101792.88;;;5.63;72.02
66945;BME280;53853;51.982;5.928;2023-02-01T01:29:59;101786.81;;;5.61;72.04
66945;BME280;53853;51.982;5.928;2023-02-01T01:32:29;101780.69;;;5.60;72.43
66945;BME280;53853;51.982;5.928;2023-02-01T01:34:59;101781.53;;;5.61;72.57
66945;BME280;53853;51.982;5.928;2023-02-01T01:37:29;101781.44;;;5.62;72.72
66945;BME280;53853;51.982;5.928;2023-02-01T01:40:01;101787.47;;;5.65;72.89
66945;BME280;53853;51.982;5.928;2023-02-01T01:42:36;101783.13;;;5.63;73.00
66945;BME280;53853;51.982;5.928;2023-02-01T01:45:09;101780.41;;;5.65;73.30
66945;BME280;53853;51.982;5.928;2023-02-01T01:47:50;101770.66;;;5.66;73.33
66945;BME280;53853;51.982;5.928;2023-02-01T01:50:26;101784.72;;;5.66;73.33
66945;BME280;53853;51.982;5.928;2023-02-01T01:52:58;101776.88;;;5.65;73.24
66945;BME280;53853;51.982;5.928;2023-02-01T01:55:36;101772.56;;;5.63;73.36
66945;BME280;53853;51.982;5.928;2023-02-01T01:58:09;101781.53;;;5.61;73.51
66945;BME280;53853;51.982;5.928;2023-02-01T02:00:40;101770.09;;;5.60;73.71
66945;BME280;53853;51.982;5.928;2023-02-01T02:03:15;101774.38;;;5.63;73.62
66945;BME280;53853;51.982;5.928;2023-02-01T02:05:49;101763.78;;;5.63;73.64
66945;BME280;53853;51.982;5.928;2023-02-01T02:08:20;101755.94;;;5.61;73.53
66945;BME280;53853;51.982;5.928;2023-02-01T02:10:54;101764.72;;;5.62;73.62
66945;BME280;53853;51.982;5.928;2023-02-01T02:13:32;101758.69;;;5.60;73.57
66945;BME280;53853;51.982;5.928;2023-02-01T02:16:21;101753.50;;;5.58;73.64
66945;BME280;53853;51.982;5.928;2023-02-01T02:19:01;101751.69;;;5.59;73.62
66945;BME280;53853;51.982;5.928;2023-02-01T02:21:53;101748.13;;;5.60;73.64
66945;BME280;53853;51.982;5.928;2023-02-01T02:24:51;101745.38;;;5.61;73.67
66945;BME280;53853;51.982;5.928;2023-02-01T02:27:38;101743.47;;;5.63;73.46
66945;BME280;53853;51.982;5.928;2023-02-01T02:33:50;101740.72;;;5.65;73.24
66945;BME280;53853;51.982;5.928;2023-02-01T02:36:30;101742.50;;;5.65;73.52
66945;BME280;53853;51.982;5.928;2023-02-01T02:39:07;101742.41;;;5.66;73.21
66945;BME280;53853;51.982;5.928;2023-02-01T02:41:44;101733.53;;;5.67;73.01
66945;BME280;53853;51.982;5.928;2023-02-01T02:44:34;101725.63;;;5.67;72.93
66945;BME280;53853;51.982;5.928;2023-02-01T02:47:22;101738.00;;;5.67;72.90
66945;BME280;53853;51.982;5.928;2023-02-01T02:50:03;101722.22;;;5.65;73.08
66945;BME280;53853;51.982;5.928;2023-02-01T02:55:25;101714.28;;;5.65;72.84
66945;BME280;53853;51.982;5.928;2023-02-01T02:57:57;101717.88;;;5.64;73.02
66945;BME280;53853;51.982;5.928;2023-02-01T03:00:41;101724.00;;;5.65;72.86
66945;BME280;53853;51.982;5.928;2023-02-01T03:03:24;101718.94;;;5.61;73.02
66945;BME280;53853;51.982;5.928;2023-02-01T03:06:13;101724.22;;;5.61;73.22
66945;BME280;53853;51.982;5.928;2023-02-01T03:08:45;101724.13;;;5.63;73.14
66945;BME280;53853;51.982;5.928;2023-02-01T03:11:16;101716.94;;;5.65;73.09
66945;BME280;53853;51.982;5.928;2023-02-01T03:13:49;101694.72;;;5.68;73.15
66945;BME280;53853;51.982;5.928;2023-02-01T03:16:22;101678.75;;;5.69;73.22
66945;BME280;53853;51.982;5.928;2023-02-01T03:18:57;101684.03;;;5.69;73.20
66945;BME280;53853;51.982;5.928;2023-02-01T03:21:33;101685.94;;;5.67;73.29
66945;BME280;53853;51.982;5.928;2023-02-01T03:24:08;101698.31;;;5.67;73.24
66945;BME280;53853;51.982;5.928;2023-02-01T03:26:45;101706.16;;;5.68;73.24
66945;BME280;53853;51.982;5.928;2023-02-01T03:29:21;101705.19;;;5.69;73.23
66945;BME280;53853;51.982;5.928;2023-02-01T03:31:54;101709.56;;;5.70;73.24
66945;BME280;53853;51.982;5.928;2023-02-01T03:34:24;101702.56;;;5.69;73.41
66945;BME280;53853;51.982;5.928;2023-02-01T03:36:59;101705.19;;;5.69;73.51
66945;BME280;53853;51.982;5.928;2023-02-01T03:39:34;101701.81;;;5.67;73.66
66945;BME280;53853;51.982;5.928;2023-02-01T03:42:09;101704.25;;;5.70;73.74
66945;BME280;53853;51.982;5.928;2023-02-01T03:44:47;101709.38;;;5.73;73.76
66945;BME280;53853;51.982;5.928;2023-02-01T03:47:20;101711.81;;;5.76;73.75
66945;BME280;53853;51.982;5.928;2023-02-01T03:49:55;101707.25;;;5.78;73.87
66945;BME280;53853;51.982;5.928;2023-02-01T03:52:32;101716.91;;;5.79;73.82
66945;BME280;53853;51.982;5.928;2023-02-01T03:55:07;101719.16;;;5.86;73.84
66945;BME280;53853;51.982;5.928;2023-02-01T03:57:43;101712.81;;;5.88;73.92
66945;BME280;53853;51.982;5.928;2023-02-01T04:00:16;101702.13;;;5.90;73.77
66945;BME280;53853;51.982;5.928;2023-02-01T04:02:46;101699.78;;;5.85;73.82
66945;BME280;53853;51.982;5.928;2023-02-01T04:05:16;101709.72;;;5.81;73.97
66945;BME280;53853;51.982;5.928;2023-02-01T04:07:58;101695.84;;;5.78;73.78
66945;BME280;53853;51.982;5.928;2023-02-01T04:10:28;101704.81;;;5.75;74.01
66945;BME280;53853;51.982;5.928;2023-02-01T04:12:58;101706.72;;;5.73;74.32
66945;BME280;53853;51.982;5.928;2023-02-01T04:15:28;101701.44;;;5.73;74.37
66945;BME280;53853;51.982;5.928;2023-02-01T04:17:58;101701.44;;;5.73;74.56
66945;BME280;53853;51.982;5.928;2023-02-01T04:20:28;101703.13;;;5.74;74.78
66945;BME280;53853;51.982;5.928;2023-02-01T04:23:00;101703.13;;;5.74;74.72
66945;BME280;53853;51.982;5.928;2023-02-01T04:25:31;101708.22;;;5.77;74.83
66945;BME280;53853;51.982;5.928;2023-02-01T04:28:01;101698.50;;;5.78;74.85
66945;BME280;53853;51.982;5.928;2023-02-01T04:30:31;101703.69;;;5.79;74.82
66945;BME280;53853;51.982;5.928;2023-02-01T04:33:01;101701.88;;;5.80;74.71
66945;BME280;53853;51.982;5.928;2023-02-01T04:35:34;101702.75;;;5.80;74.53
66945;BME280;53853;51.982;5.928;2023-02-01T04:38:07;101715.75;;;5.84;74.64
66945;BME280;53853;51.982;5.928;2023-02-01T04:40:37;101713.59;;;5.90;74.54
66945;BME280;53853;51.982;5.928;2023-02-01T04:43:07;101707.94;;;5.96;74.43
66945;BME280;53853;51.982;5.928;2023-02-01T04:45:37;101709.13;;;6.05;74.09
66945;BME280;53853;51.982;5.928;2023-02-01T04:48:07;101702.59;;;6.11;74.07
66945;BME280;53853;51.982;5.928;2023-02-01T04:50:37;101702.22;;;6.17;74.00
66945;BME280;53853;51.982;5.928;2023-02-01T04:53:09;101704.22;;;6.26;73.29
66945;BME280;53853;51.982;5.928;2023-02-01T04:55:39;101708.50;;;6.29;73.02
66945;BME280;53853;51.982;5.928;2023-02-01T04:58:09;101701.09;;;6.34;72.86
66945;BME280;53853;51.982;5.928;2023-02-01T05:00:39;101693.56;;;6.41;72.77
66945;BME280;53853;51.982;5.928;2023-02-01T05:03:09;101698.56;;;6.45;72.73
66945;BME280;53853;51.982;5.928;2023-02-01T05:05:39;101692.03;;;6.51;72.09
66945;BME280;53853;51.982;5.928;2023-02-01T05:08:11;101702.31;;;6.56;71.94
66945;BME280;53853;51.982;5.928;2023-02-01T05:10:41;101705.59;;;6.59;71.81
66945;BME280;53853;51.982;5.928;2023-02-01T05:13:11;101709.66;;;6.65;71.73
66945;BME280;53853;51.982;5.928;2023-02-01T05:15:53;101704.25;;;6.66;71.16
66945;BME280;53853;51.982;5.928;2023-02-01T05:18:23;101685.31;;;6.73;70.93
66945;BME280;53853;51.982;5.928;2023-02-01T05:20:53;101683.28;;;6.76;70.68
66945;BME280;53853;51.982;5.928;2023-02-01T05:23:25;101684.84;;;6.79;71.08
66945;BME280;53853;51.982;5.928;2023-02-01T05:25:58;101694.31;;;6.83;70.97
66945;BME280;53853;51.982;5.928;2023-02-01T05:28:29;101688.69;;;6.87;70.02
66945;BME280;53853;51.982;5.928;2023-02-01T05:30:59;101684.13;;;6.89;70.33
66945;BME280;53853;51.982;5.928;2023-02-01T05:33:29;101682.97;;;6.94;70.29
66945;BME280;53853;51.982;5.928;2023-02-01T05:35:59;101681.91;;;6.96;70.28
66945;BME280;53853;51.982;5.928;2023-02-01T05:38:31;101681.06;;;6.96;70.32
66945;BME280;53853;51.982;5.928;2023-02-01T05:41:01;101680.84;;;6.99;70.18
66945;BME280;53853;51.982;5.928;2023-02-01T05:43:31;101699.31;;;7.00;70.60
66945;BME280;53853;51.982;5.928;2023-02-01T05:46:01;101701.75;;;7.03;70.64
66945;BME280;53853;51.982;5.928;2023-02-01T05:48:31;101697.06;;;7.07;70.27
66945;BME280;53853;51.982;5.928;2023-02-01T05:51:01;101714.56;;;7.10;69.98
66945;BME280;53853;51.982;5.928;2023-02-01T05:53:34;101708.22;;;7.12;69.78
66945;BME280;53853;51.982;5.928;2023-02-01T05:56:04;101704.72;;;7.12;69.33
66945;BME280;53853;51.982;5.928;2023-02-01T05:58:34;101704.09;;;7.08;69.78
66945;BME280;53853;51.982;5.928;2023-02-01T06:01:05;101716.50;;;7.07;69.71
66945;BME280;53853;51.982;5.928;2023-02-01T06:03:34;101718.16;;;7.08;69.32
66945;BME280;53853;51.982;5.928;2023-02-01T06:06:05;101716.50;;;7.07;69.53
66945;BME280;53853;51.982;5.928;2023-02-01T06:08:37;101708.53;;;7.07;69.46
66945;BME280;53853;51.982;5.928;2023-02-01T06:11:08;101711.09;;;7.09;69.51
66945;BME280;53853;51.982;5.928;2023-02-01T06:13:38;101705.78;;;7.09;69.62
66945;BME280;53853;51.982;5.928;2023-02-01T06:16:08;101698.25;;;7.03;69.46
66945;BME280;53853;51.982;5.928;2023-02-01T06:18:38;101699.19;;;7.02;69.30
66945;BME280;53853;51.982;5.928;2023-02-01T06:21:08;101700.91;;;7.03;69.52
66945;BME280;53853;51.982;5.928;2023-02-01T06:23:42;101699.00;;;7.05;69.50
66945;BME280;53853;51.982;5.928;2023-02-01T06:26:12;101708.84;;;7.03;69.14
66945;BME280;53853;51.982;5.928;2023-02-01T06:28:44;101708.44;;;7.09;69.06
66945;BME280;53853;51.982;5.928;2023-02-01T06:31:14;101706.00;;;7.06;69.17
66945;BME280;53853;51.982;5.928;2023-02-01T06:33:44;101707.16;;;7.02;69.05
66945;BME280;53853;51.982;5.928;2023-02-01T06:36:15;101711.41;;;7.04;69.02
66945;BME280;53853;51.982;5.928;2023-02-01T06:38:50;101712.03;;;7.08;69.17
66945;BME280;53853;51.982;5.928;2023-02-01T06:41:20;101715.31;;;7.12;69.10
66945;BME280;53853;51.982;5.928;2023-02-01T06:43:50;101724.03;;;7.14;69.07
66945;BME280;53853;51.982;5.928;2023-02-01T06:46:20;101727.53;;;7.14;68.91
66945;BME280;53853;51.982;5.928;2023-02-01T06:48:50;101721.13;;;7.17;68.58
66945;BME280;53853;51.982;5.928;2023-02-01T06:51:23;101721.91;;;7.19;68.80
66945;BME280;53853;51.982;5.928;2023-02-01T06:53:55;101728.66;;;7.23;68.60
66945;BME280;53853;51.982;5.928;2023-02-01T06:56:26;101714.56;;;7.22;68.37
66945;BME280;53853;51.982;5.928;2023-02-01T06:58:58;101722.44;;;7.24;68.57
66945;BME280;53853;51.982;5.928;2023-02-01T07:01:28;101716.06;;;7.27;68.72
66945;BME280;53853;51.982;5.928;2023-02-01T07:03:58;101730.06;;;7.29;68.75
66945;BME280;53853;51.982;5.928;2023-02-01T07:06:28;101722.84;;;7.31;68.81
66945;BME280;53853;51.982;5.928;2023-02-01T07:09:00;101722.00;;;7.30;68.67
66945;BME280;53853;51.982;5.928;2023-02-01T07:11:30;101724.56;;;7.32;68.58
66945;BME280;53853;51.982;5.928;2023-02-01T07:14:00;101727.31;;;7.30;68.71
66945;BME280;53853;51.982;5.928;2023-02-01T07:16:30;101731.78;;;7.30;68.59
66945;BME280;53853;51.982;5.928;2023-02-01T07:19:00;101733.66;;;7.28;68.75
66945;BME280;53853;51.982;5.928;2023-02-01T07:21:30;101726.88;;;7.23;68.77
66945;BME280;53853;51.982;5.928;2023-02-01T07:24:02;101732.41;;;7.20;68.93
66945;BME280;53853;51.982;5.928;2023-02-01T07:26:32;101731.00;;;7.15;69.15
66945;BME280;53853;51.982;5.928;2023-02-01T07:29:02;101730.38;;;7.11;69.32
66945;BME280;53853;51.982;5.928;2023-02-01T07:31:32;101728.78;;;7.08;69.56
66945;BME280;53853;51.982;5.928;2023-02-01T07:34:02;101737.81;;;7.06;69.69
66945;BME280;53853;51.982;5.928;2023-02-01T07:36:32;101724.88;;;7.01;69.69
66945;BME280;53853;51.982;5.928;2023-02-01T07:39:05;101736.50;;;6.99;69.89
66945;BME280;53853;51.982;5.928;2023-02-01T07:41:35;101732.38;;;6.95;70.00
66945;BME280;53853;51.982;5.928;2023-02-01T07:44:05;101727.28;;;6.92;70.06
66945;BME280;53853;51.982;5.928;2023-02-01T07:46:35;101728.34;;;6.89;70.15
66945;BME280;53853;51.982;5.928;2023-02-01T07:49:10;101737.44;;;6.85;70.34
66945;BME280;53853;51.982;5.928;2023-02-01T07:51:40;101730.25;;;6.87;70.58
66945;BME280;53853;51.982;5.928;2023-02-01T07:54:13;101730.25;;;6.87;70.87
66945;BME280;53853;51.982;5.928;2023-02-01T07:56:43;101725.47;;;6.92;70.61
66945;BME280;53853;51.982;5.928;2023-02-01T07:59:12;101734.16;;;6.94;70.62
66945;BME280;53853;51.982;5.928;2023-02-01T08:01:43;101735.97;;;6.94;70.55
66945;BME280;53853;51.982;5.928;2023-02-01T08:04:12;101727.09;;;6.95;70.62
66945;BME280;53853;51.982;5.928;2023-02-01T08:06:42;101728.03;;;6.94;70.43
66945;BME280;53853;51.982;5.928;2023-02-01T08:09:14;101732.38;;;6.95;70.34
66945;BME280;53853;51.982;5.928;2023-02-01T08:11:44;101743.72;;;6.97;70.46
66945;BME280;53853;51.982;5.928;2023-02-01T08:14:14;101756.09;;;6.96;70.39
66945;BME280;53853;51.982;5.928;2023-02-01T08:16:44;101745.31;;;6.99;70.31
66945;BME280;53853;51.982;5.928;2023-02-01T08:19:14;101746.16;;;7.00;70.22
66945;BME280;53853;51.982;5.928;2023-02-01T08:21:44;101755.06;;;6.99;70.22
66945;BME280;53853;51.982;5.928;2023-02-01T08:24:18;101766.50;;;6.99;70.28
66945;BME280;53853;51.982;5.928;2023-02-01T08:26:48;101763.13;;;6.97;70.36
66945;BME280;53853;51.982;5.928;2023-02-01T08:29:18;101759.53;;;6.98;70.45
66945;BME280;53853;51.982;5.928;2023-02-01T08:31:48;101758.44;;;7.01;70.41
66945;BME280;53853;51.982;5.928;2023-02-01T08:34:18;101753.81;;;7.04;70.45
66945;BME280;53853;51.982;5.928;2023-02-01T08:36:48;101753.28;;;7.12;70.29
66945;BME280;53853;51.982;5.928;2023-02-01T08:39:27;101748.63;;;7.16;69.96
66945;BME280;53853;51.982;5.928;2023-02-01T08:41:57;101747.53;;;7.18;69.93
66945;BME280;53853;51.982;5.928;2023-02-01T08:44:39;101746.06;;;7.27;69.47
66945;BME280;53853;51.982;5.928;2023-02-01T08:47:09;101744.81;;;7.33;69.43
66945;BME280;53853;51.982;5.928;2023-02-01T08:49:39;101747.78;;;7.41;69.55
66945;BME280;53853;51.982;5.928;2023-02-01T08:52:08;101736.53;;;7.50;68.84
66945;BME280;53853;51.982;5.928;2023-02-01T08:54:41;101737.56;;;7.60;68.75
66945;BME280;53853;51.982;5.928;2023-02-01T08:57:11;101731.81;;;7.67;68.67
66945;BME280;53853;51.982;5.928;2023-02-01T08:59:41;101732.00;;;7.76;68.52
66945;BME280;53853;51.982;5.928;2023-02-01T09:02:12;101728.94;;;7.83;68.20
66945;BME280;53853;51.982;5.928;2023-02-01T09:04:43;101719.03;;;7.85;67.75
66945;BME280;53853;51.982;5.928;2023-02-01T09:07:12;101719.16;;;7.83;67.87
66945;BME280;53853;51.982;5.928;2023-02-01T09:09:46;101721.47;;;7.88;68.03
66945;BME280;53853;51.982;5.928;2023-02-01T09:12:16;101731.03;;;7.90;67.99
66945;BME280;53853;51.982;5.928;2023-02-01T09:14:46;101708.09;;;7.89;68.15
66945;BME280;53853;51.982;5.928;2023-02-01T09:17:16;101723.28;;;7.87;68.42
66945;BME280;53853;51.982;5.928;2023-02-01T09:19:45;101733.06;;;7.87;68.24
66945;BME280;53853;51.982;5.928;2023-02-01T09:22:15;101720.41;;;7.90;68.11
66945;BME280;53853;51.982;5.928;2023-02-01T09:24:48;101709.59;;;7.93;67.86
66945;BME280;53853;51.982;5.928;2023-02-01T09:27:18;101705.22;;;7.92;67.75
66945;BME280;53853;51.982;5.928;2023-02-01T09:29:48;101706.50;;;8.00;68.24
66945;BME280;53853;51.982;5.928;2023-02-01T09:32:19;101711.09;;;8.09;67.96
66945;BME280;53853;51.982;5.928;2023-02-01T09:34:49;101709.19;;;8.11;67.57
66945;BME280;53853;51.982;5.928;2023-02-01T09:37:20;101704.06;;;8.21;67.60
66945;BME280;53853;51.982;5.928;2023-02-01T09:39:52;101701.78;;;8.27;66.95
66945;BME280;53853;51.982;5.928;2023-02-01T09:42:35;101710.78;;;8.38;66.32
66945;BME280;53853;51.982;5.928;2023-02-01T09:45:20;101721.59;;;8.47;66.56
66945;BME280;53853;51.982;5.928;2023-02-01T09:47:54;101708.31;;;8.47;65.55
66945;BME280;53853;51.982;5.928;2023-02-01T09:50:31;101723.41;;;8.34;66.03
66945;BME280;53853;51.982;5.928;2023-02-01T09:53:06;101722.03;;;8.41;66.60
66945;BME280;53853;51.982;5.928;2023-02-01T09:55:45;101720.88;;;8.45;66.26
66945;BME280;53853;51.982;5.928;2023-02-01T09:58:19;101711.09;;;8.46;65.91
66945;BME280;53853;51.982;5.928;2023-02-01T10:00:53;101706.63;;;8.46;65.97
66945;BME280;53853;51.982;5.928;2023-02-01T10:03:24;101700.88;;;8.40;66.24
66945;BME280;53853;51.982;5.928;2023-02-01T10:06:05;101714.16;;;8.40;66.20
66945;BME280;53853;51.982;5.928;2023-02-01T10:09:00;101720.88;;;8.32;66.19
66945;BME280;53853;51.982;5.928;2023-02-01T10:11:44;101701.06;;;8.25;66.44
66945;BME280;53853;51.982;5.928;2023-02-01T10:14:41;101711.56;;;8.27;66.65
66945;BME280;53853;51.982;5.928;2023-02-01T10:17:25;101703.38;;;8.30;66.21
66945;BME280;53853;51.982;5.928;2023-02-01T10:20:05;101706.25;;;8.27;66.39
66945;BME280;53853;51.982;5.928;2023-02-01T10:22:41;101705.28;;;8.28;66.44
66945;BME280;53853;51.982;5.928;2023-02-01T10:25:17;101705.28;;;8.28;66.59
66945;BME280;53853;51.982;5.928;2023-02-01T10:27:54;101707.09;;;8.27;66.53
66945;BME280;53853;51.982;5.928;2023-02-01T10:30:26;101691.78;;;8.31;66.93
66945;BME280;53853;51.982;5.928;2023-02-01T10:33:12;101696.38;;;8.29;67.92
66945;BME280;53853;51.982;5.928;2023-02-01T10:35:45;101689.94;;;8.20;69.08
66945;BME280;53853;51.982;5.928;2023-02-01T10:38:20;101697.81;;;8.09;69.99
66945;BME280;53853;51.982;5.928;2023-02-01T10:40:54;101693.59;;;8.06;70.78
66945;BME280;53853;51.982;5.928;2023-02-01T10:43:28;101692.47;;;7.97;71.03
66945;BME280;53853;51.982;5.928;2023-02-01T10:45:58;101676.97;;;7.91;71.37
66945;BME280;53853;51.982;5.928;2023-02-01T10:48:28;101699.50;;;7.86;71.84
66945;BME280;53853;51.982;5.928;2023-02-01T10:51:03;101697.91;;;7.83;72.23
66945;BME280;53853;51.982;5.928;2023-02-01T10:53:37;101699.72;;;7.83;72.90
66945;BME280;53853;51.982;5.928;2023-02-01T10:56:10;101688.22;;;7.71;72.99
66945;BME280;53853;51.982;5.928;2023-02-01T10:58:47;101693.75;;;7.55;73.96
66945;BME280;53853;51.982;5.928;2023-02-01T11:01:21;101696.75;;;7.50;74.61
66945;BME280;53853;51.982;5.928;2023-02-01T11:03:56;101697.59;;;7.38;74.79
66945;BME280;53853;51.982;5.928;2023-02-01T11:06:29;101689.75;;;7.36;75.31
66945;BME280;53853;51.982;5.928;2023-02-01T11:09:10;101679.56;;;7.43;75.13
66945;BME280;53853;51.982;5.928;2023-02-01T11:11:55;101681.88;;;7.48;74.28
66945;BME280;53853;51.982;5.928;2023-02-01T11:14:38;101669.25;;;7.51;74.16
66945;BME280;53853;51.982;5.928;2023-02-01T11:17:24;101657.59;;;7.54;72.98
66945;BME280;53853;51.982;5.928;2023-02-01T11:19:59;101668.31;;;7.52;73.10
66945;BME280;53853;51.982;5.928;2023-02-01T11:22:29;101661.78;;;7.56;72.97
66945;BME280;53853;51.982;5.928;2023-02-01T11:25:01;101658.09;;;7.59;73.25
66945;BME280;53853;51.982;5.928;2023-02-01T11:27:38;101654.50;;;7.60;72.91
66945;BME280;53853;51.982;5.928;2023-02-01T11:30:16;101649.06;;;7.61;72.57
66945;BME280;53853;51.982;5.928;2023-02-01T11:32:48;101648.97;;;7.63;72.38
66945;BME280;53853;51.982;5.928;2023-02-01T11:35:21;101647.47;;;7.59;71.69
66945;BME280;53853;51.982;5.928;2023-02-01T11:37:55;101648.53;;;7.56;71.96
66945;BME280;53853;51.982;5.928;2023-02-01T11:40:29;101653.50;;;7.61;71.97
66945;BME280;53853;51.982;5.928;2023-02-01T11:43:12;101655.00;;;7.65;72.71
66945;BME280;53853;51.982;5.928;2023-02-01T11:45:54;101660.31;;;7.65;73.24
66945;BME280;53853;51.982;5.928;2023-02-01T11:48:26;101650.53;;;7.66;73.10
66945;BME280;53853;51.982;5.928;2023-02-01T11:51:16;101644.50;;;7.64;72.33
66945;BME280;53853;51.982;5.928;2023-02-01T11:54:03;101646.94;;;7.67;72.36
66945;BME280;53853;51.982;5.928;2023-02-01T11:56:39;101648.75;;;7.66;71.50
66945;BME280;53853;51.982;5.928;2023-02-01T12:02:35;101648.53;;;7.69;72.08
66945;BME280;53853;51.982;5.928;2023-02-01T12:05:20;101649.16;;;7.73;72.22
66945;BME280;53853;51.982;5.928;2023-02-01T12:08:06;101643.63;;;7.76;72.19
66945;BME280;53853;51.982;5.928;2023-02-01T12:10:48;101636.28;;;7.79;72.51
66945;BME280;53853;51.982;5.928;2023-02-01T12:13:38;101637.88;;;7.82;72.22
66945;BME280;53853;51.982;5.928;2023-02-01T12:16:20;101632.56;;;7.82;71.52
66945;BME280;53853;51.982;5.928;2023-02-01T12:22:14;101634.41;;;7.93;72.19
66945;BME280;53853;51.982;5.928;2023-02-01T12:25:07;101627.81;;;7.98;71.36
66945;BME280;53853;51.982;5.928;2023-02-01T12:31:05;101623.91;;;8.15;70.73
66945;BME280;53853;51.982;5.928;2023-02-01T12:33:49;101628.00;;;8.20;70.45
66945;BME280;53853;51.982;5.928;2023-02-01T12:36:29;101621.16;;;8.28;70.61
66945;BME280;53853;51.982;5.928;2023-02-01T12:39:09;101619.97;;;8.32;69.66
66945;BME280;53853;51.982;5.928;2023-02-01T12:41:53;101621.91;;;8.42;69.34
66945;BME280;53853;51.982;5.928;2023-02-01T12:44:36;101625.56;;;8.41;68.59
66945;BME280;53853;51.982;5.928;2023-02-01T12:47:14;101633.34;;;8.44;68.89
66945;BME280;53853;51.982;5.928;2023-02-01T12:49:51;101623.53;;;8.44;68.55
66945;BME280;53853;51.982;5.928;2023-02-01T12:52:30;101625.25;;;8.45;68.43
66945;BME280;53853;51.982;5.928;2023-02-01T12:55:09;101623.31;;;8.47;68.73
66945;BME280;53853;51.982;5.928;2023-02-01T12:57:49;101618.13;;;8.46;68.26
66945;BME280;53853;51.982;5.928;2023-02-01T13:00:24;101615.84;;;8.52;68.50
66945;BME280;53853;51.982;5.928;2023-02-01T13:02:59;101619.09;;;8.56;68.07
66945;BME280;53853;51.982;5.928;2023-02-01T13:05:36;101617.31;;;8.57;68.21
66945;BME280;53853;51.982;5.928;2023-02-01T13:08:20;101613.78;;;8.56;67.87
66945;BME280;53853;51.982;5.928;2023-02-01T13:10:56;101609.81;;;8.62;68.24
66945;BME280;53853;51.982;5.928;2023-02-01T13:13:32;101609.81;;;8.62;67.60
66945;BME280;53853;51.982;5.928;2023-02-01T13:16:13;101620.56;;;8.60;67.80
66945;BME280;53853;51.982;5.928;2023-02-01T13:18:47;101608.88;;;8.63;68.10
66945;BME280;53853;51.982;5.928;2023-02-01T13:21:24;101618.25;;;8.56;66.97
66945;BME280;53853;51.982;5.928;2023-02-01T13:23:58;101604.97;;;8.56;67.30
66945;BME280;53853;51.982;5.928;2023-02-01T13:26:28;101619.44;;;8.51;67.45
66945;BME280;53853;51.982;5.928;2023-02-01T13:29:00;101602.78;;;8.49;67.31
66945;BME280;53853;51.982;5.928;2023-02-01T13:31:56;101612.09;;;8.44;67.70
66945;BME280;53853;51.982;5.928;2023-02-01T13:35:00;101614.63;;;8.45;68.03
66945;BME280;53853;51.982;5.928;2023-02-01T13:40:37;101627.53;;;8.50;67.09
66945;BME280;53853;51.982;5.928;2023-02-01T13:43:13;101627.94;;;8.57;67.62
66945;BME280;53853;51.982;5.928;2023-02-01T13:45:48;101631.41;;;8.57;66.56
66945;BME280;53853;51.982;5.928;2023-02-01T13:48:22;101640.22;;;8.58;67.63
66945;BME280;53853;51.982;5.928;2023-02-01T13:50:56;101635.66;;;8.60;68.30
66945;BME280;53853;51.982;5.928;2023-02-01T13:53:30;101630.13;;;8.63;67.67
66945;BME280;53853;51.982;5.928;2023-02-01T13:56:09;101638.31;;;8.60;67.42